createdAt,value
2022-11-17T00:00:18.803Z,96196.34
2022-11-17T00:02:47.306Z,96192.91
2022-11-17T00:05:15.944Z,96201.50
2022-11-17T00:07:45.326Z,96198.06
2022-11-17T00:10:14.365Z,96209.97
2022-11-17T00:13:00.394Z,96215.97
2022-11-17T00:15:30.317Z,96221.69
2022-11-17T00:18:16.524Z,96226.84
2022-11-17T00:21:02.252Z,96237.34
2022-11-17T00:23:47.279Z,96243.25
2022-11-17T00:26:17.105Z,96243.03
2022-11-17T00:28:45.581Z,96233.81
2022-11-17T00:31:33.880Z,96228.78
2022-11-17T00:34:06.384Z,96225.28
2022-11-17T00:36:40.918Z,96221.94
2022-11-17T00:39:10.193Z,96219.41
2022-11-17T00:41:38.566Z,96207.41
2022-11-17T00:44:07.847Z,96200.56
2022-11-17T00:46:38.453Z,96205.66
2022-11-17T00:49:07.477Z,96208.22
2022-11-17T00:51:36.282Z,96203.09
2022-11-17T00:54:05.853Z,96211.63
2022-11-17T00:56:35.427Z,96198.78
2022-11-17T00:59:04.166Z,96199.59
2022-11-17T01:01:32.965Z,96180.81
2022-11-17T01:04:07.181Z,96177.34
2022-11-17T01:06:37.381Z,96175.63
2022-11-17T01:09:07.736Z,96179.84
2022-11-17T01:11:36.128Z,96173.00
2022-11-17T01:14:04.815Z,96171.22
2022-11-17T01:16:34.586Z,96168.50
2022-11-17T01:19:05.083Z,96165.09
2022-11-17T01:21:33.645Z,96157.41
2022-11-17T01:24:02.878Z,96161.69
2022-11-17T01:26:33.430Z,96155.47
2022-11-17T01:29:02.368Z,96146.06
2022-11-17T01:31:32.436Z,96142.66
2022-11-17T01:34:01.333Z,96137.66
2022-11-17T01:36:53.944Z,96131.59
2022-11-17T01:39:23.184Z,96124.72
2022-11-17T01:41:51.628Z,96134.03
2022-11-17T01:44:56.848Z,96132.31
2022-11-17T01:47:29.038Z,96128.94
2022-11-17T01:50:00.446Z,96121.16
2022-11-17T01:52:32.895Z,96113.53
2022-11-17T01:55:01.946Z,96114.38
2022-11-17T01:57:33.925Z,96110.13
2022-11-17T02:00:05.824Z,96110.19
2022-11-17T02:02:34.680Z,96116.25
2022-11-17T02:05:07.539Z,96114.59
2022-11-17T02:07:38.284Z,96112.03
2022-11-17T02:10:07.754Z,96110.31
2022-11-17T02:12:37.060Z,96119.75
2022-11-17T02:15:06.645Z,96106.91
2022-11-17T02:17:37.327Z,96104.31
2022-11-17T02:20:08.998Z,96104.94
2022-11-17T02:23:06.118Z,96096.72
2022-11-17T02:25:47.815Z,96098.16
2022-11-17T02:28:19.091Z,96103.41
2022-11-17T02:30:58.362Z,96103.25
2022-11-17T02:33:34.402Z,96092.16
2022-11-17T02:36:06.830Z,96087.94
2022-11-17T02:38:42.225Z,96105.06
2022-11-17T02:41:14.027Z,96105.63
2022-11-17T02:44:05.939Z,96107.31
2022-11-17T02:46:42.449Z,96104.22
2022-11-17T02:49:18.670Z,96104.28
2022-11-17T02:51:47.971Z,96100.06
2022-11-17T02:54:16.972Z,96098.34
2022-11-17T02:56:45.676Z,96100.88
2022-11-17T02:59:18.652Z,96100.00
2022-11-17T03:02:15.412Z,96101.72
2022-11-17T03:04:48.532Z,96101.72
2022-11-17T03:07:29.378Z,96106.81
2022-11-17T03:10:04.470Z,96098.19
2022-11-17T03:12:37.485Z,96099.91
2022-11-17T03:15:14.026Z,96094.09
2022-11-17T03:17:48.454Z,96089.00
2022-11-17T03:20:21.530Z,96095.81
2022-11-17T03:22:52.764Z,96083.00
2022-11-17T03:25:23.286Z,96082.97
2022-11-17T03:27:56.281Z,96073.50
2022-11-17T03:30:26.856Z,96074.31
2022-11-17T03:32:58.258Z,96073.47
2022-11-17T03:35:29.206Z,96064.91
2022-11-17T03:38:02.058Z,96069.16
2022-11-17T03:40:32.218Z,96073.91
2022-11-17T03:43:03.138Z,96080.22
2022-11-17T03:45:35.982Z,96080.31
2022-11-17T03:48:09.173Z,96078.38
2022-11-17T03:50:41.443Z,96076.16
2022-11-17T03:53:10.224Z,96087.19
2022-11-17T03:55:43.639Z,96088.56
2022-11-17T03:58:16.681Z,96090.66
2022-11-17T04:00:47.497Z,96086.84
2022-11-17T04:03:17.156Z,96093.13
2022-11-17T04:05:45.624Z,96087.44
2022-11-17T04:08:13.901Z,96096.53
2022-11-17T04:10:56.092Z,96089.84
2022-11-17T04:13:51.431Z,96092.59
2022-11-17T04:16:21.180Z,96098.50
2022-11-17T04:18:50.726Z,96098.47
2022-11-17T04:21:20.092Z,96095.97
2022-11-17T04:23:48.428Z,96090.03
2022-11-17T04:26:34.117Z,96097.69
2022-11-17T04:29:02.591Z,96107.00
2022-11-17T04:31:32.970Z,96096.03
2022-11-17T04:34:03.167Z,96095.22
2022-11-17T04:36:33.271Z,96098.69
2022-11-17T04:39:01.639Z,96097.06
2022-11-17T04:41:48.309Z,96095.34
2022-11-17T04:44:18.572Z,96090.28
2022-11-17T04:46:48.268Z,96083.47
2022-11-17T04:49:18.293Z,96089.41
2022-11-17T04:51:46.695Z,96090.28
2022-11-17T04:54:17.529Z,96079.13
2022-11-17T04:56:46.728Z,96089.44
2022-11-17T04:59:15.670Z,96081.75
2022-11-17T05:01:44.041Z,96068.06
2022-11-17T05:04:15.046Z,96068.94
2022-11-17T05:06:44.935Z,96072.34
2022-11-17T05:09:15.806Z,96072.16
2022-11-17T05:12:02.396Z,96082.44
2022-11-17T05:14:31.455Z,96085.88
2022-11-17T05:17:11.247Z,96083.28
2022-11-17T05:19:44.316Z,96090.16
2022-11-17T05:22:31.909Z,96094.38
2022-11-17T05:25:00.266Z,96094.25
2022-11-17T05:27:28.588Z,96097.56
2022-11-17T05:29:57.060Z,96094.25
2022-11-17T05:32:26.027Z,96092.59
2022-11-17T05:34:56.023Z,96097.81
2022-11-17T05:37:24.420Z,96095.16
2022-11-17T05:39:52.747Z,96093.44
2022-11-17T05:42:21.168Z,96088.31
2022-11-17T05:44:49.675Z,96093.53
2022-11-17T05:47:18.758Z,96089.38
2022-11-17T05:49:47.185Z,96089.44
2022-11-17T05:52:16.952Z,96095.44
2022-11-17T05:54:45.309Z,96092.06
2022-11-17T05:57:16.488Z,96086.09
2022-11-17T05:59:48.015Z,96076.72
2022-11-17T06:02:18.393Z,96082.72
2022-11-17T06:04:47.474Z,96092.94
2022-11-17T06:07:18.115Z,96092.06
2022-11-17T06:09:47.807Z,96095.47
2022-11-17T06:12:16.571Z,96094.59
2022-11-17T06:14:45.018Z,96089.41
2022-11-17T06:17:22.414Z,96087.66
2022-11-17T06:19:53.471Z,96091.03
2022-11-17T06:22:23.305Z,96086.72
2022-11-17T06:24:51.767Z,96078.16
2022-11-17T06:27:20.233Z,96084.78
2022-11-17T06:29:49.048Z,96096.66
2022-11-17T06:32:18.588Z,96086.34
2022-11-17T06:34:53.604Z,96071.94
2022-11-17T06:37:25.689Z,96077.97
2022-11-17T06:39:54.074Z,96073.75
2022-11-17T06:42:43.036Z,96070.41
2022-11-17T06:45:12.383Z,96061.88
2022-11-17T06:47:41.015Z,96066.13
2022-11-17T06:50:10.452Z,96062.66
2022-11-17T06:52:40.716Z,96071.03
2022-11-17T06:55:10.055Z,96065.09
2022-11-17T06:57:39.235Z,96077.91
2022-11-17T07:00:09.009Z,96085.53
2022-11-17T07:02:37.825Z,96094.06
2022-11-17T07:05:06.849Z,96088.00
2022-11-17T07:07:35.404Z,96092.25
2022-11-17T07:10:05.549Z,96085.34
2022-11-17T07:12:34.754Z,96072.44
2022-11-17T07:15:03.031Z,96082.59
2022-11-17T07:17:31.789Z,96084.28
2022-11-17T07:20:00.074Z,96081.63
2022-11-17T07:22:28.337Z,96089.34
2022-11-17T07:24:56.634Z,96089.16
2022-11-17T07:27:26.304Z,96086.59
2022-11-17T07:29:54.647Z,96083.97
2022-11-17T07:32:22.946Z,96082.16
2022-11-17T07:34:51.380Z,96080.31
2022-11-17T07:37:19.943Z,96082.78
2022-11-17T07:39:48.230Z,96067.19
2022-11-17T07:42:16.531Z,96068.09
2022-11-17T07:44:55.803Z,96076.50
2022-11-17T07:47:24.084Z,96069.47
2022-11-17T07:49:52.636Z,96064.94
2022-11-17T07:52:20.897Z,96059.97
2022-11-17T07:54:49.254Z,96060.13
2022-11-17T07:57:17.488Z,96048.00
2022-11-17T07:59:45.779Z,96041.91
2022-11-17T08:02:15.563Z,96040.72
2022-11-17T08:04:43.949Z,96054.31
2022-11-17T08:07:12.527Z,96050.91
2022-11-17T08:09:40.869Z,96045.56
2022-11-17T08:12:09.319Z,96049.91
2022-11-17T08:14:37.592Z,96051.47
2022-11-17T08:17:06.005Z,96058.19
2022-11-17T08:19:35.709Z,96066.88
2022-11-17T08:22:03.942Z,96073.72
2022-11-17T08:24:33.537Z,96067.59
2022-11-17T08:27:02.124Z,96050.53
2022-11-17T08:29:30.474Z,96044.81
2022-11-17T08:32:00.912Z,96033.72
2022-11-17T08:34:29.214Z,96023.06
2022-11-17T08:36:58.942Z,96016.59
2022-11-17T08:39:28.643Z,96021.59
2022-11-17T08:41:56.896Z,96030.78
2022-11-17T08:44:25.252Z,96021.00
2022-11-17T08:46:53.591Z,96025.31
2022-11-17T08:49:21.818Z,96008.06
2022-11-17T08:51:50.622Z,96004.94
2022-11-17T08:54:20.328Z,96011.03
2022-11-17T08:56:48.729Z,96013.13
2022-11-17T08:59:17.014Z,96006.19
2022-11-17T09:01:45.494Z,96009.97
2022-11-17T09:04:14.067Z,96000.41
2022-11-17T09:06:42.378Z,96002.94
2022-11-17T09:09:10.744Z,96000.41
2022-11-17T09:11:40.434Z,95997.69
2022-11-17T09:14:09.111Z,96006.19
2022-11-17T09:16:37.836Z,96005.88
2022-11-17T09:19:06.886Z,96000.81
2022-11-17T09:21:35.216Z,96010.28
2022-11-17T09:24:03.480Z,96019.50
2022-11-17T09:26:31.807Z,96027.09
2022-11-17T09:29:04.340Z,96021.28
2022-11-17T09:31:33.030Z,96020.66
2022-11-17T09:34:05.265Z,96028.25
2022-11-17T09:36:35.033Z,96034.69
2022-11-17T09:39:03.294Z,96036.56
2022-11-17T09:41:35.529Z,96034.47
2022-11-17T09:44:17.335Z,96032.72
2022-11-17T09:46:56.266Z,96031.03
2022-11-17T09:49:34.251Z,96037.19
2022-11-17T09:52:07.174Z,96023.88
2022-11-17T09:54:42.674Z,96034.31
2022-11-17T09:57:21.292Z,96040.06
2022-11-17T10:00:03.442Z,96036.50
2022-11-17T10:02:33.711Z,96042.78
2022-11-17T10:05:02.360Z,96040.19
2022-11-17T10:07:32.196Z,96027.56
2022-11-17T10:10:02.647Z,96027.19
2022-11-17T10:12:36.278Z,96026.19
2022-11-17T10:15:22.375Z,96021.03
2022-11-17T10:17:51.599Z,96013.53
2022-11-17T10:20:19.999Z,96014.38
2022-11-17T10:22:49.130Z,96011.09
2022-11-17T10:25:37.370Z,96002.06
2022-11-17T10:28:07.830Z,95996.31
2022-11-17T10:30:37.912Z,95992.13
2022-11-17T10:33:06.695Z,95989.69
2022-11-17T10:35:36.367Z,95982.94
2022-11-17T10:38:07.687Z,95991.22
2022-11-17T10:40:48.309Z,95991.78
2022-11-17T10:43:24.815Z,95986.47
2022-11-17T10:45:56.032Z,95993.13
2022-11-17T10:48:28.202Z,95985.94
2022-11-17T10:50:58.467Z,95981.13
2022-11-17T10:53:31.226Z,95985.28
2022-11-17T10:56:03.623Z,95976.84
2022-11-17T10:58:34.266Z,95975.56
2022-11-17T11:01:06.189Z,95984.97
2022-11-17T11:03:36.207Z,95973.69
2022-11-17T11:06:07.446Z,95972.50
2022-11-17T11:08:48.755Z,95987.81
2022-11-17T11:11:36.136Z,95983.44
2022-11-17T11:14:13.230Z,95988.38
2022-11-17T11:16:47.889Z,95987.69
2022-11-17T11:19:18.515Z,95989.59
2022-11-17T11:22:20.942Z,95970.81
2022-11-17T11:24:53.396Z,95968.63
2022-11-17T11:27:45.078Z,95961.78
2022-11-17T11:30:15.267Z,95965.03
2022-11-17T11:32:56.101Z,95961.53
2022-11-17T11:35:40.076Z,95969.72
2022-11-17T11:38:24.198Z,95980.03
2022-11-17T11:41:04.881Z,95979.94
2022-11-17T11:43:37.270Z,95990.03
2022-11-17T11:46:11.788Z,95981.38
2022-11-17T11:48:42.481Z,95979.38
2022-11-17T11:51:14.862Z,95961.72
2022-11-17T11:53:47.698Z,95954.84
2022-11-17T11:56:19.203Z,95940.03
2022-11-17T11:58:57.128Z,95939.03
2022-11-17T12:01:25.905Z,95942.69
2022-11-17T12:04:01.815Z,95941.34
2022-11-17T12:06:43.035Z,95938.31
2022-11-17T12:09:26.028Z,95934.41
2022-11-17T12:12:01.555Z,95928.34
2022-11-17T12:14:31.632Z,95932.50
2022-11-17T12:17:12.362Z,95931.38
2022-11-17T12:19:51.192Z,95923.91
2022-11-17T12:22:39.154Z,95919.09
2022-11-17T12:25:17.187Z,95930.50
2022-11-17T12:27:47.205Z,95925.63
2022-11-17T12:30:56.941Z,95923.66
2022-11-17T12:33:25.375Z,95922.81
2022-11-17T12:36:30.454Z,95915.41
2022-11-17T12:39:00.085Z,95922.88
2022-11-17T12:42:01.830Z,95920.56
2022-11-17T12:44:50.906Z,95926.16
2022-11-17T12:47:20.646Z,95919.59
2022-11-17T12:50:00.989Z,95931.94
2022-11-17T12:52:34.556Z,95935.47
2022-11-17T12:55:07.507Z,95932.63
2022-11-17T12:57:36.521Z,95939.31
2022-11-17T13:00:10.046Z,95934.53
2022-11-17T13:03:00.738Z,95949.41
2022-11-17T13:05:30.333Z,95950.31
2022-11-17T13:08:22.486Z,95952.38
2022-11-17T13:10:51.685Z,95954.59
2022-11-17T13:13:22.848Z,95950.13
2022-11-17T13:15:52.259Z,95953.25
2022-11-17T13:18:31.713Z,95966.09
2022-11-17T13:21:00.728Z,95970.56
2022-11-17T13:23:31.674Z,95983.75
2022-11-17T13:26:10.780Z,95986.38
2022-11-17T13:28:39.172Z,95982.28
2022-11-17T13:31:08.198Z,95984.13
2022-11-17T13:33:40.182Z,95992.28
2022-11-17T13:36:17.294Z,95987.84
2022-11-17T13:38:52.124Z,95988.41
2022-11-17T13:41:21.513Z,95978.94
2022-11-17T13:43:50.607Z,95989.97
2022-11-17T13:46:19.147Z,95986.75
2022-11-17T13:48:48.501Z,95984.41
2022-11-17T13:51:19.113Z,95988.69
2022-11-17T13:53:50.984Z,95999.28
2022-11-17T13:56:24.501Z,96002.78
2022-11-17T13:58:53.046Z,95993.97
2022-11-17T14:01:25.585Z,95995.69
2022-11-17T14:03:54.149Z,96007.13
2022-11-17T14:06:22.390Z,96004.72
2022-11-17T14:09:06.364Z,96007.84
2022-11-17T14:11:34.649Z,96010.19
2022-11-17T14:14:02.953Z,96013.22
2022-11-17T14:16:36.372Z,96009.13
2022-11-17T14:19:07.236Z,96013.59
2022-11-17T14:21:35.527Z,96023.25
2022-11-17T14:24:08.367Z,96026.81
2022-11-17T14:26:42.193Z,96032.72
2022-11-17T14:29:12.548Z,96033.84
2022-11-17T14:31:40.886Z,96033.19
2022-11-17T14:34:09.299Z,96037.47
2022-11-17T14:36:38.571Z,96052.00
2022-11-17T14:39:14.126Z,96043.25
2022-11-17T14:41:42.962Z,96051.19
2022-11-17T14:44:11.436Z,96061.75
2022-11-17T14:46:39.930Z,96060.34
2022-11-17T14:49:08.418Z,96062.19
2022-11-17T14:51:37.022Z,96064.59
2022-11-17T14:54:05.613Z,96061.09
2022-11-17T14:56:35.967Z,96063.75
2022-11-17T14:59:04.294Z,96065.81
2022-11-17T15:01:38.442Z,96060.91
2022-11-17T15:04:27.623Z,96060.16
2022-11-17T15:06:57.164Z,96050.91
2022-11-17T15:09:25.769Z,96046.00
2022-11-17T15:11:55.474Z,96053.94
2022-11-17T15:14:24.325Z,96056.72
2022-11-17T15:16:52.654Z,96063.72
2022-11-17T15:19:20.965Z,96062.13
2022-11-17T15:21:49.207Z,96064.97
2022-11-17T15:24:18.053Z,96061.88
2022-11-17T15:26:46.403Z,96062.97
2022-11-17T15:29:16.573Z,96064.69
2022-11-17T15:31:45.068Z,96073.38
2022-11-17T15:34:19.754Z,96075.19
2022-11-17T15:36:48.869Z,96081.22
2022-11-17T15:39:18.084Z,96078.84
2022-11-17T15:41:47.092Z,96079.88
2022-11-17T15:44:18.971Z,96081.66
2022-11-17T15:46:48.090Z,96084.34
2022-11-17T15:49:16.853Z,96093.97
2022-11-17T15:51:45.419Z,96095.81
2022-11-17T15:54:20.030Z,96091.56
2022-11-17T15:56:49.069Z,96103.00
2022-11-17T15:59:19.396Z,96104.72
2022-11-17T16:01:47.953Z,96109.19
2022-11-17T16:04:16.834Z,96107.53
2022-11-17T16:06:46.860Z,96092.91
2022-11-17T16:09:16.012Z,96095.63
2022-11-17T16:11:45.106Z,96100.81
2022-11-17T16:14:14.910Z,96098.28
2022-11-17T16:16:46.849Z,96092.34
2022-11-17T16:19:15.498Z,96093.28
2022-11-17T16:21:44.654Z,96100.19
2022-11-17T16:24:13.114Z,96096.84
2022-11-17T16:26:41.398Z,96097.81
2022-11-17T16:29:10.019Z,96108.16
2022-11-17T16:31:38.730Z,96109.16
2022-11-17T16:34:11.877Z,96114.34
2022-11-17T16:36:41.853Z,96115.28
2022-11-17T16:39:12.116Z,96118.66
2022-11-17T16:41:42.030Z,96116.25
2022-11-17T16:44:12.233Z,96109.38
2022-11-17T16:46:42.861Z,96108.59
2022-11-17T16:49:18.056Z,96119.78
2022-11-17T16:51:49.052Z,96117.38
2022-11-17T16:54:18.218Z,96119.09
2022-11-17T16:56:47.010Z,96124.25
2022-11-17T16:59:16.668Z,96134.56
2022-11-17T17:01:46.151Z,96131.16
2022-11-17T17:04:17.559Z,96126.88
2022-11-17T17:06:46.702Z,96134.56
2022-11-17T17:09:16.418Z,96130.25
2022-11-17T17:11:46.825Z,96130.25
2022-11-17T17:14:16.379Z,96140.53
2022-11-17T17:16:45.332Z,96134.38
2022-11-17T17:19:17.546Z,96136.03
2022-11-17T17:21:46.842Z,96145.56
2022-11-17T17:24:16.111Z,96143.97
2022-11-17T17:26:45.121Z,96154.31
2022-11-17T17:29:14.230Z,96150.97
2022-11-17T17:31:45.093Z,96153.56
2022-11-17T17:34:14.127Z,96160.44
2022-11-17T17:36:44.314Z,96163.06
2022-11-17T17:39:17.150Z,96162.25
2022-11-17T17:41:46.902Z,96161.38
2022-11-17T17:44:23.391Z,96163.03
2022-11-17T17:46:52.838Z,96166.50
2022-11-17T17:49:22.197Z,96167.38
2022-11-17T17:51:53.153Z,96160.56
2022-11-17T17:54:24.483Z,96163.94
2022-11-17T17:56:53.961Z,96166.41
2022-11-17T17:59:23.230Z,96172.19
2022-11-17T18:01:53.462Z,96173.03
2022-11-17T18:04:23.028Z,96174.88
2022-11-17T18:06:56.163Z,96171.34
2022-11-17T18:09:27.135Z,96188.38
2022-11-17T18:11:56.787Z,96185.88
2022-11-17T18:14:39.387Z,96183.28
2022-11-17T18:17:10.315Z,96179.03
2022-11-17T18:19:40.138Z,96177.34
2022-11-17T18:22:13.794Z,96184.16
2022-11-17T18:24:43.011Z,96180.72
2022-11-17T18:27:12.371Z,96176.50
2022-11-17T18:29:41.658Z,96182.50
2022-11-17T18:32:11.300Z,96186.72
2022-11-17T18:34:42.473Z,96188.44
2022-11-17T18:37:16.959Z,96195.38
2022-11-17T18:39:48.087Z,96188.56
2022-11-17T18:42:18.833Z,96189.44
2022-11-17T18:44:48.711Z,96186.97
2022-11-17T18:47:21.247Z,96192.16
2022-11-17T18:49:51.812Z,96187.94
2022-11-17T18:52:30.100Z,96193.06
2022-11-17T18:55:01.775Z,96190.56
2022-11-17T18:57:32.124Z,96194.81
2022-11-17T19:00:04.606Z,96192.25
2022-11-17T19:02:34.017Z,96190.56
2022-11-17T19:05:05.753Z,96188.84
2022-11-17T19:07:37.178Z,96190.56
2022-11-17T19:10:09.042Z,96182.06
2022-11-17T19:12:39.998Z,96184.63
2022-11-17T19:15:10.156Z,96178.66
2022-11-17T19:17:47.330Z,96176.13
2022-11-17T19:20:19.716Z,96176.97
2022-11-17T19:22:52.865Z,96178.69
2022-11-17T19:25:24.860Z,96173.59
2022-11-17T19:27:54.940Z,96171.84
2022-11-17T19:30:27.047Z,96171.88
2022-11-17T19:32:58.944Z,96174.47
2022-11-17T19:35:29.136Z,96168.50
2022-11-17T19:38:00.526Z,96168.50
2022-11-17T19:40:30.503Z,96156.56
2022-11-17T19:43:02.862Z,96159.16
2022-11-17T19:45:33.551Z,96165.97
2022-11-17T19:48:04.019Z,96162.56
2022-11-17T19:50:38.024Z,96166.84
2022-11-17T19:53:08.455Z,96158.31
2022-11-17T19:55:39.464Z,96163.44
2022-11-17T19:58:09.518Z,96164.28
2022-11-17T20:00:40.079Z,96164.25
2022-11-17T20:03:11.728Z,96159.03
2022-11-17T20:05:41.937Z,96157.28
2022-11-17T20:08:13.325Z,96156.50
2022-11-17T20:10:44.532Z,96164.16
2022-11-17T20:13:14.714Z,96155.59
2022-11-17T20:15:48.349Z,96162.50
2022-11-17T20:18:18.319Z,96164.28
2022-11-17T20:20:50.290Z,96158.31
2022-11-17T20:23:21.277Z,96164.25
2022-11-17T20:25:51.880Z,96157.47
2022-11-17T20:28:21.930Z,96148.97
2022-11-17T20:30:51.765Z,96154.94
2022-11-17T20:33:21.985Z,96154.97
2022-11-17T20:35:51.661Z,96154.13
2022-11-17T20:38:24.364Z,96149.84
2022-11-17T20:40:58.550Z,96161.78
2022-11-17T20:43:28.787Z,96163.50
2022-11-17T20:45:59.671Z,96172.84
2022-11-17T20:48:32.066Z,96160.91
2022-11-17T20:51:02.901Z,96158.38
2022-11-17T20:53:34.600Z,96153.25
2022-11-17T20:56:06.420Z,96143.03
2022-11-17T20:58:36.563Z,96143.03
2022-11-17T21:01:10.459Z,96146.44
2022-11-17T21:03:40.481Z,96143.88
2022-11-17T21:06:11.035Z,96135.34
2022-11-17T21:08:43.744Z,96142.16
2022-11-17T21:11:35.272Z,96143.00
2022-11-17T21:14:05.090Z,96133.63
2022-11-17T21:16:34.690Z,96123.38
2022-11-17T21:19:03.452Z,96122.47
2022-11-17T21:21:32.571Z,96131.00
2022-11-17T21:24:02.354Z,96128.44
2022-11-17T21:26:30.990Z,96126.69
2022-11-17T21:29:06.007Z,96127.53
2022-11-17T21:31:35.495Z,96130.09
2022-11-17T21:34:06.200Z,96136.94
2022-11-17T21:36:36.224Z,96133.44
2022-11-17T21:39:06.211Z,96144.50
2022-11-17T21:41:36.270Z,96143.66
2022-11-17T21:44:05.053Z,96146.94
2022-11-17T21:46:34.823Z,96145.38
2022-11-17T21:49:03.369Z,96139.34
2022-11-17T21:51:33.468Z,96137.69
2022-11-17T21:54:03.397Z,96139.34
2022-11-17T21:56:33.161Z,96131.69
2022-11-17T21:59:02.683Z,96132.56
2022-11-17T22:01:31.980Z,96127.41
2022-11-17T22:04:00.357Z,96118.84
2022-11-17T22:06:28.793Z,96117.13
2022-11-17T22:08:57.773Z,96102.56
2022-11-17T22:11:37.039Z,96109.38
2022-11-17T22:14:09.672Z,96102.50
2022-11-17T22:16:39.476Z,96098.22
2022-11-17T22:19:08.414Z,96094.03
2022-11-17T22:21:37.502Z,96081.19
2022-11-17T22:24:07.089Z,96086.28
2022-11-17T22:26:38.186Z,96087.13
2022-11-17T22:29:09.144Z,96084.59
2022-11-17T22:31:37.329Z,96066.44
2022-11-17T22:34:05.893Z,96070.75
2022-11-17T22:36:34.162Z,96058.81
2022-11-17T22:39:02.571Z,96054.66
2022-11-17T22:41:31.329Z,96048.78
2022-11-17T22:44:00.498Z,96045.22
2022-11-17T22:46:30.448Z,96040.09
2022-11-17T22:48:58.931Z,96029.19
2022-11-17T22:51:44.783Z,96036.00
2022-11-17T22:54:13.204Z,96033.47
2022-11-17T22:56:41.410Z,96031.88
2022-11-17T22:59:09.769Z,96034.50
2022-11-17T23:01:39.620Z,96033.63
2022-11-17T23:04:07.955Z,96027.63
2022-11-17T23:06:36.183Z,96029.31
2022-11-17T23:09:04.476Z,96032.75
2022-11-17T23:11:37.517Z,96025.09
2022-11-17T23:14:06.533Z,96020.84
2022-11-17T23:16:34.807Z,96009.69
2022-11-17T23:19:04.774Z,96003.72
2022-11-17T23:21:33.164Z,96000.34
2022-11-17T23:24:01.369Z,95988.44
2022-11-17T23:26:29.861Z,95979.91
2022-11-17T23:28:58.134Z,95983.38
2022-11-17T23:31:27.952Z,95977.41
2022-11-17T23:33:56.302Z,95980.84
2022-11-17T23:36:26.278Z,95988.41
2022-11-17T23:38:57.647Z,95985.00
2022-11-17T23:41:26.404Z,95986.75
2022-11-17T23:43:55.531Z,95998.81
2022-11-17T23:46:25.571Z,96006.53
2022-11-17T23:48:54.226Z,96018.50
2022-11-17T23:51:23.708Z,96017.66
2022-11-17T23:53:53.552Z,96012.53
2022-11-17T23:56:22.372Z,96022.78
2022-11-17T23:58:50.849Z,96034.69
